sensor_id;sensor_type;location;lat;lon;timestamp;temperature;humidity
65369;HTU21D;51970;53.484;49.488;2023-07-31T00:01:58;19.33;71.95
65369;HTU21D;51970;53.484;49.488;2023-07-31T00:04:24;19.35;71.95
65369;HTU21D;51970;53.484;49.488;2023-07-31T00:06:50;19.35;71.71
65369;HTU21D;51970;53.484;49.488;2023-07-31T00:09:17;19.35;71.39
65369;HTU21D;51970;53.484;49.488;2023-07-31T00:11:43;19.32;71.46
65369;HTU21D;51970;53.484;49.488;2023-07-31T00:14:09;19.30;71.22
65369;HTU21D;51970;53.484;49.488;2023-07-31T00:16:35;19.27;71.55
65369;HTU21D;51970;53.484;49.488;2023-07-31T00:19:02;19.22;71.77
65369;HTU21D;51970;53.484;49.488;2023-07-31T00:21:28;19.18;71.97
65369;HTU21D;51970;53.484;49.488;2023-07-31T00:23:54;19.12;72.26
65369;HTU21D;51970;53.484;49.488;2023-07-31T00:26:20;19.10;72.00
65369;HTU21D;51970;53.484;49.488;2023-07-31T00:28:46;19.06;72.08
65369;HTU21D;51970;53.484;49.488;2023-07-31T00:31:13;19.02;72.19
65369;HTU21D;51970;53.484;49.488;2023-07-31T00:33:39;18.99;72.14
65369;HTU21D;51970;53.484;49.488;2023-07-31T00:36:05;18.95;72.33
65369;HTU21D;51970;53.484;49.488;2023-07-31T00:38:32;18.92;72.29
65369;HTU21D;51970;53.484;49.488;2023-07-31T00:40:58;18.88;72.04
65369;HTU21D;51970;53.484;49.488;2023-07-31T00:43:24;18.87;71.67
65369;HTU21D;51970;53.484;49.488;2023-07-31T00:45:51;18.85;71.40
65369;HTU21D;51970;53.484;49.488;2023-07-31T00:48:17;18.85;71.30
65369;HTU21D;51970;53.484;49.488;2023-07-31T00:50:43;18.87;71.29
65369;HTU21D;51970;53.484;49.488;2023-07-31T00:53:10;18.88;71.22
65369;HTU21D;51970;53.484;49.488;2023-07-31T00:55:36;18.86;70.73
65369;HTU21D;51970;53.484;49.488;2023-07-31T00:58:02;18.84;71.02
65369;HTU21D;51970;53.484;49.488;2023-07-31T01:00:29;18.84;71.20
65369;HTU21D;51970;53.484;49.488;2023-07-31T01:02:55;18.88;71.27
65369;HTU21D;51970;53.484;49.488;2023-07-31T01:08:33;18.82;70.94
65369;HTU21D;51970;53.484;49.488;2023-07-31T01:11:14;18.84;70.68
65369;HTU21D;51970;53.484;49.488;2023-07-31T01:13:42;19.05;70.19
65369;HTU21D;51970;53.484;49.488;2023-07-31T01:16:11;19.65;68.11
65369;HTU21D;51970;53.484;49.488;2023-07-31T01:18:37;20.11;66.12
65369;HTU21D;51970;53.484;49.488;2023-07-31T01:24:21;20.75;63.61
65369;HTU21D;51970;53.484;49.488;2023-07-31T01:27:03;20.88;62.57
65369;HTU21D;51970;53.484;49.488;2023-07-31T01:32:12;19.61;67.11
65369;HTU21D;51970;53.484;49.488;2023-07-31T01:34:39;19.38;68.27
65369;HTU21D;51970;53.484;49.488;2023-07-31T01:37:07;19.25;68.71
65369;HTU21D;51970;53.484;49.488;2023-07-31T01:39:33;19.15;69.26
65369;HTU21D;51970;53.484;49.488;2023-07-31T01:41:59;19.13;69.56
65369;HTU21D;51970;53.484;49.488;2023-07-31T01:44:26;19.11;69.44
65369;HTU21D;51970;53.484;49.488;2023-07-31T01:46:52;19.06;69.23
65369;HTU21D;51970;53.484;49.488;2023-07-31T01:49:18;19.03;69.21
65369;HTU21D;51970;53.484;49.488;2023-07-31T01:51:45;19.03;69.19
65369;HTU21D;51970;53.484;49.488;2023-07-31T01:54:11;19.00;69.12
65369;HTU21D;51970;53.484;49.488;2023-07-31T01:56:37;18.99;69.13
65369;HTU21D;51970;53.484;49.488;2023-07-31T01:59:04;18.99;69.25
65369;HTU21D;51970;53.484;49.488;2023-07-31T02:01:30;19.01;69.20
65369;HTU21D;51970;53.484;49.488;2023-07-31T02:03:56;18.97;69.05
65369;HTU21D;51970;53.484;49.488;2023-07-31T02:06:23;18.89;69.36
65369;HTU21D;51970;53.484;49.488;2023-07-31T02:08:50;18.84;69.70
65369;HTU21D;51970;53.484;49.488;2023-07-31T02:11:16;18.84;69.83
65369;HTU21D;51970;53.484;49.488;2023-07-31T02:13:42;18.82;69.78
65369;HTU21D;51970;53.484;49.488;2023-07-31T02:16:08;18.87;69.68
65369;HTU21D;51970;53.484;49.488;2023-07-31T02:18:35;18.86;69.64
65369;HTU21D;51970;53.484;49.488;2023-07-31T02:21:01;18.78;69.97
65369;HTU21D;51970;53.484;49.488;2023-07-31T02:23:27;18.74;70.19
65369;HTU21D;51970;53.484;49.488;2023-07-31T02:25:53;18.78;70.27
65369;HTU21D;51970;53.484;49.488;2023-07-31T02:28:20;18.85;70.34
65369;HTU21D;51970;53.484;49.488;2023-07-31T02:30:46;18.85;70.45
65369;HTU21D;51970;53.484;49.488;2023-07-31T02:33:12;18.89;70.48
65369;HTU21D;51970;53.484;49.488;2023-07-31T02:35:39;18.99;69.72
65369;HTU21D;51970;53.484;49.488;2023-07-31T02:38:05;18.92;69.81
65369;HTU21D;51970;53.484;49.488;2023-07-31T02:40:31;18.86;70.33
65369;HTU21D;51970;53.484;49.488;2023-07-31T02:42:57;18.93;70.55
65369;HTU21D;51970;53.484;49.488;2023-07-31T02:45:24;19.00;70.05
65369;HTU21D;51970;53.484;49.488;2023-07-31T02:47:50;19.02;70.01
65369;HTU21D;51970;53.484;49.488;2023-07-31T02:50:16;19.07;69.75
65369;HTU21D;51970;53.484;49.488;2023-07-31T02:52:42;19.11;69.16
65369;HTU21D;51970;53.484;49.488;2023-07-31T02:55:09;19.05;69.58
65369;HTU21D;51970;53.484;49.488;2023-07-31T02:57:35;19.17;69.55
65369;HTU21D;51970;53.484;49.488;2023-07-31T03:00:01;19.32;68.66
65369;HTU21D;51970;53.484;49.488;2023-07-31T03:02:31;19.35;68.43
65369;HTU21D;51970;53.484;49.488;2023-07-31T03:04:58;19.35;68.78
65369;HTU21D;51970;53.484;49.488;2023-07-31T03:07:24;19.41;67.97
65369;HTU21D;51970;53.484;49.488;2023-07-31T03:09:50;19.31;68.29
65369;HTU21D;51970;53.484;49.488;2023-07-31T03:12:16;19.30;67.72
65369;HTU21D;51970;53.484;49.488;2023-07-31T03:14:43;19.21;68.20
65369;HTU21D;51970;53.484;49.488;2023-07-31T03:17:09;19.18;68.04
65369;HTU21D;51970;53.484;49.488;2023-07-31T03:19:35;19.21;67.99
65369;HTU21D;51970;53.484;49.488;2023-07-31T03:22:01;19.15;67.84
65369;HTU21D;51970;53.484;49.488;2023-07-31T03:24:28;19.07;68.20
65369;HTU21D;51970;53.484;49.488;2023-07-31T03:26:55;19.09;68.25
65369;HTU21D;51970;53.484;49.488;2023-07-31T03:29:21;19.10;68.17
65369;HTU21D;51970;53.484;49.488;2023-07-31T03:31:48;19.13;68.39
65369;HTU21D;51970;53.484;49.488;2023-07-31T03:34:14;19.20;68.30
65369;HTU21D;51970;53.484;49.488;2023-07-31T03:36:40;19.28;68.10
65369;HTU21D;51970;53.484;49.488;2023-07-31T03:39:06;19.24;67.91
65369;HTU21D;51970;53.484;49.488;2023-07-31T03:41:33;19.27;67.78
65369;HTU21D;51970;53.484;49.488;2023-07-31T03:43:59;19.33;67.57
65369;HTU21D;51970;53.484;49.488;2023-07-31T03:46:25;19.35;67.66
65369;HTU21D;51970;53.484;49.488;2023-07-31T03:48:51;19.41;67.53
65369;HTU21D;51970;53.484;49.488;2023-07-31T03:51:18;19.36;67.36
65369;HTU21D;51970;53.484;49.488;2023-07-31T03:53:44;19.45;67.75
65369;HTU21D;51970;53.484;49.488;2023-07-31T03:56:11;19.61;67.00
65369;HTU21D;51970;53.484;49.488;2023-07-31T03:58:37;19.71;66.33
65369;HTU21D;51970;53.484;49.488;2023-07-31T04:01:04;19.72;66.62
65369;HTU21D;51970;53.484;49.488;2023-07-31T04:03:30;19.85;66.26
65369;HTU21D;51970;53.484;49.488;2023-07-31T04:05:57;19.89;65.30
65369;HTU21D;51970;53.484;49.488;2023-07-31T04:08:23;19.75;65.61
65369;HTU21D;51970;53.484;49.488;2023-07-31T04:10:50;19.90;65.64
65369;HTU21D;51970;53.484;49.488;2023-07-31T04:13:16;19.99;64.82
65369;HTU21D;51970;53.484;49.488;2023-07-31T04:15:42;20.02;64.86
65369;HTU21D;51970;53.484;49.488;2023-07-31T04:18:09;20.26;64.11
65369;HTU21D;51970;53.484;49.488;2023-07-31T04:20:35;20.35;63.94
65369;HTU21D;51970;53.484;49.488;2023-07-31T04:23:01;20.39;63.70
65369;HTU21D;51970;53.484;49.488;2023-07-31T04:25:27;20.42;63.67
65369;HTU21D;51970;53.484;49.488;2023-07-31T04:27:53;20.32;63.36
65369;HTU21D;51970;53.484;49.488;2023-07-31T04:30:21;20.16;64.08
65369;HTU21D;51970;53.484;49.488;2023-07-31T04:32:47;20.18;63.77
65369;HTU21D;51970;53.484;49.488;2023-07-31T04:35:13;20.04;64.40
65369;HTU21D;51970;53.484;49.488;2023-07-31T04:37:40;19.96;64.59
65369;HTU21D;51970;53.484;49.488;2023-07-31T04:40:07;19.99;64.46
65369;HTU21D;51970;53.484;49.488;2023-07-31T04:42:34;19.98;64.14
65369;HTU21D;51970;53.484;49.488;2023-07-31T04:45:00;20.24;63.49
65369;HTU21D;51970;53.484;49.488;2023-07-31T04:47:26;20.19;63.05
65369;HTU21D;51970;53.484;49.488;2023-07-31T04:49:53;20.18;63.15
65369;HTU21D;51970;53.484;49.488;2023-07-31T04:52:19;20.17;63.34
65369;HTU21D;51970;53.484;49.488;2023-07-31T04:54:45;20.12;63.15
65369;HTU21D;51970;53.484;49.488;2023-07-31T04:57:11;20.18;63.47
65369;HTU21D;51970;53.484;49.488;2023-07-31T04:59:38;20.59;62.50
65369;HTU21D;51970;53.484;49.488;2023-07-31T05:02:07;20.95;61.01
65369;HTU21D;51970;53.484;49.488;2023-07-31T05:04:33;21.16;60.13
65369;HTU21D;51970;53.484;49.488;2023-07-31T05:06:59;21.28;60.18
65369;HTU21D;51970;53.484;49.488;2023-07-31T05:09:25;21.51;59.46
65369;HTU21D;51970;53.484;49.488;2023-07-31T05:11:51;21.51;58.74
65369;HTU21D;51970;53.484;49.488;2023-07-31T05:14:18;21.30;60.18
65369;HTU21D;51970;53.484;49.488;2023-07-31T05:16:44;21.23;59.74
65369;HTU21D;51970;53.484;49.488;2023-07-31T05:19:10;21.09;59.80
65369;HTU21D;51970;53.484;49.488;2023-07-31T05:21:36;21.17;59.95
65369;HTU21D;51970;53.484;49.488;2023-07-31T05:24:03;21.13;59.87
65369;HTU21D;51970;53.484;49.488;2023-07-31T05:26:29;21.06;60.41
65369;HTU21D;51970;53.484;49.488;2023-07-31T05:28:56;21.09;60.28
65369;HTU21D;51970;53.484;49.488;2023-07-31T05:31:22;21.11;60.38
65369;HTU21D;51970;53.484;49.488;2023-07-31T05:33:48;21.09;60.17
65369;HTU21D;51970;53.484;49.488;2023-07-31T05:36:16;21.07;60.70
65369;HTU21D;51970;53.484;49.488;2023-07-31T05:38:43;20.92;60.80
65369;HTU21D;51970;53.484;49.488;2023-07-31T05:41:12;20.85;61.58
65369;HTU21D;51970;53.484;49.488;2023-07-31T05:43:38;20.80;61.76
65369;HTU21D;51970;53.484;49.488;2023-07-31T05:46:04;20.62;62.52
65369;HTU21D;51970;53.484;49.488;2023-07-31T05:48:32;20.57;62.44
65369;HTU21D;51970;53.484;49.488;2023-07-31T05:51:00;20.42;62.69
65369;HTU21D;51970;53.484;49.488;2023-07-31T05:53:26;20.37;62.66
65369;HTU21D;51970;53.484;49.488;2023-07-31T05:55:52;20.35;62.61
65369;HTU21D;51970;53.484;49.488;2023-07-31T05:58:18;20.47;62.41
65369;HTU21D;51970;53.484;49.488;2023-07-31T06:00:45;20.43;61.60
65369;HTU21D;51970;53.484;49.488;2023-07-31T06:03:11;20.25;62.29
65369;HTU21D;51970;53.484;49.488;2023-07-31T06:05:38;20.24;62.62
65369;HTU21D;51970;53.484;49.488;2023-07-31T06:08:04;20.27;61.96
65369;HTU21D;51970;53.484;49.488;2023-07-31T06:10:30;20.22;62.29
65369;HTU21D;51970;53.484;49.488;2023-07-31T06:12:56;20.24;62.50
65369;HTU21D;51970;53.484;49.488;2023-07-31T06:15:23;20.16;62.25
65369;HTU21D;51970;53.484;49.488;2023-07-31T06:17:49;20.35;62.20
65369;HTU21D;51970;53.484;49.488;2023-07-31T06:20:15;20.37;61.76
65369;HTU21D;51970;53.484;49.488;2023-07-31T06:22:42;20.18;62.70
65369;HTU21D;51970;53.484;49.488;2023-07-31T06:25:08;20.19;62.64
65369;HTU21D;51970;53.484;49.488;2023-07-31T06:27:34;19.88;62.96
65369;HTU21D;51970;53.484;49.488;2023-07-31T06:30:01;19.82;63.34
65369;HTU21D;51970;53.484;49.488;2023-07-31T06:32:27;19.82;63.39
65369;HTU21D;51970;53.484;49.488;2023-07-31T06:34:53;19.75;63.46
65369;HTU21D;51970;53.484;49.488;2023-07-31T06:37:20;19.83;63.36
65369;HTU21D;51970;53.484;49.488;2023-07-31T06:39:46;20.01;62.84
65369;HTU21D;51970;53.484;49.488;2023-07-31T06:42:12;20.22;62.08
65369;HTU21D;51970;53.484;49.488;2023-07-31T06:44:38;20.33;62.16
65369;HTU21D;51970;53.484;49.488;2023-07-31T06:47:05;20.59;61.34
65369;HTU21D;51970;53.484;49.488;2023-07-31T06:49:31;20.68;60.88
65369;HTU21D;51970;53.484;49.488;2023-07-31T06:51:57;20.61;61.36
65369;HTU21D;51970;53.484;49.488;2023-07-31T06:54:23;20.43;61.55
65369;HTU21D;51970;53.484;49.488;2023-07-31T06:56:50;20.43;61.98
65369;HTU21D;51970;53.484;49.488;2023-07-31T06:59:16;20.54;61.31
65369;HTU21D;51970;53.484;49.488;2023-07-31T07:01:42;20.47;61.52
65369;HTU21D;51970;53.484;49.488;2023-07-31T07:04:08;20.58;61.62
65369;HTU21D;51970;53.484;49.488;2023-07-31T07:06:35;20.75;61.15
65369;HTU21D;51970;53.484;49.488;2023-07-31T07:09:01;20.94;60.02
65369;HTU21D;51970;53.484;49.488;2023-07-31T07:11:28;21.03;59.89
65369;HTU21D;51970;53.484;49.488;2023-07-31T07:13:54;21.05;60.01
65369;HTU21D;51970;53.484;49.488;2023-07-31T07:16:21;20.96;60.93
65369;HTU21D;51970;53.484;49.488;2023-07-31T07:18:47;20.96;60.88
65369;HTU21D;51970;53.484;49.488;2023-07-31T07:21:13;20.84;61.17
65369;HTU21D;51970;53.484;49.488;2023-07-31T07:23:42;20.78;61.44
65369;HTU21D;51970;53.484;49.488;2023-07-31T07:26:09;20.70;61.79
65369;HTU21D;51970;53.484;49.488;2023-07-31T07:28:35;20.51;62.25
65369;HTU21D;51970;53.484;49.488;2023-07-31T07:31:03;20.40;63.05
65369;HTU21D;51970;53.484;49.488;2023-07-31T07:33:29;20.46;63.14
65369;HTU21D;51970;53.484;49.488;2023-07-31T07:36:00;20.20;64.45
65369;HTU21D;51970;53.484;49.488;2023-07-31T07:38:27;20.20;65.23
65369;HTU21D;51970;53.484;49.488;2023-07-31T07:40:53;20.24;65.04
65369;HTU21D;51970;53.484;49.488;2023-07-31T07:43:20;20.30;64.86
65369;HTU21D;51970;53.484;49.488;2023-07-31T07:45:46;20.29;64.74
65369;HTU21D;51970;53.484;49.488;2023-07-31T07:48:12;20.30;65.05
65369;HTU21D;51970;53.484;49.488;2023-07-31T07:50:39;20.34;64.69
65369;HTU21D;51970;53.484;49.488;2023-07-31T07:53:05;20.27;65.21
65369;HTU21D;51970;53.484;49.488;2023-07-31T07:55:31;20.35;64.87
65369;HTU21D;51970;53.484;49.488;2023-07-31T07:57:58;20.36;65.07
65369;HTU21D;51970;53.484;49.488;2023-07-31T08:00:24;20.45;65.00
65369;HTU21D;51970;53.484;49.488;2023-07-31T08:02:50;20.71;64.13
65369;HTU21D;51970;53.484;49.488;2023-07-31T08:05:16;20.80;63.72
65369;HTU21D;51970;53.484;49.488;2023-07-31T08:07:43;20.80;63.09
65369;HTU21D;51970;53.484;49.488;2023-07-31T08:10:10;20.81;63.29
65369;HTU21D;51970;53.484;49.488;2023-07-31T08:12:36;20.98;62.95
65369;HTU21D;51970;53.484;49.488;2023-07-31T08:15:02;21.17;62.63
65369;HTU21D;51970;53.484;49.488;2023-07-31T08:17:29;21.35;61.32
65369;HTU21D;51970;53.484;49.488;2023-07-31T08:19:55;21.28;61.85
65369;HTU21D;51970;53.484;49.488;2023-07-31T08:22:24;21.29;61.47
65369;HTU21D;51970;53.484;49.488;2023-07-31T08:24:51;21.49;60.56
65369;HTU21D;51970;53.484;49.488;2023-07-31T08:27:17;21.72;60.49
65369;HTU21D;51970;53.484;49.488;2023-07-31T08:29:43;22.06;58.79
65369;HTU21D;51970;53.484;49.488;2023-07-31T08:32:10;22.40;58.41
65369;HTU21D;51970;53.484;49.488;2023-07-31T08:34:36;22.47;57.77
65369;HTU21D;51970;53.484;49.488;2023-07-31T08:37:02;22.55;57.32
65369;HTU21D;51970;53.484;49.488;2023-07-31T08:39:29;22.58;57.47
65369;HTU21D;51970;53.484;49.488;2023-07-31T08:41:59;22.43;57.33
65369;HTU21D;51970;53.484;49.488;2023-07-31T08:44:26;22.08;58.57
65369;HTU21D;51970;53.484;49.488;2023-07-31T08:46:52;21.99;59.22
65369;HTU21D;51970;53.484;49.488;2023-07-31T08:49:20;21.80;59.38
65369;HTU21D;51970;53.484;49.488;2023-07-31T08:51:47;21.68;60.23
65369;HTU21D;51970;53.484;49.488;2023-07-31T08:54:16;21.89;59.28
65369;HTU21D;51970;53.484;49.488;2023-07-31T08:56:43;22.09;58.80
65369;HTU21D;51970;53.484;49.488;2023-07-31T08:59:11;22.43;57.93
65369;HTU21D;51970;53.484;49.488;2023-07-31T09:01:42;22.37;57.41
65369;HTU21D;51970;53.484;49.488;2023-07-31T09:04:10;22.05;57.81
65369;HTU21D;51970;53.484;49.488;2023-07-31T09:06:39;21.94;58.40
65369;HTU21D;51970;53.484;49.488;2023-07-31T09:09:05;22.18;57.48
65369;HTU21D;51970;53.484;49.488;2023-07-31T09:11:31;22.27;57.35
65369;HTU21D;51970;53.484;49.488;2023-07-31T09:13:58;22.60;56.77
65369;HTU21D;51970;53.484;49.488;2023-07-31T09:16:28;22.95;55.60
65369;HTU21D;51970;53.484;49.488;2023-07-31T09:18:58;23.12;54.64
65369;HTU21D;51970;53.484;49.488;2023-07-31T09:21:25;23.07;54.06
65369;HTU21D;51970;53.484;49.488;2023-07-31T09:23:53;22.76;54.81
65369;HTU21D;51970;53.484;49.488;2023-07-31T09:26:34;22.88;54.71
65369;HTU21D;51970;53.484;49.488;2023-07-31T09:29:04;23.00;54.29
65369;HTU21D;51970;53.484;49.488;2023-07-31T09:31:41;23.23;53.86
65369;HTU21D;51970;53.484;49.488;2023-07-31T09:34:08;23.41;53.02
65369;HTU21D;51970;53.484;49.488;2023-07-31T09:36:45;23.56;52.72
65369;HTU21D;51970;53.484;49.488;2023-07-31T09:39:13;23.13;53.57
65369;HTU21D;51970;53.484;49.488;2023-07-31T09:41:41;23.03;54.17
65369;HTU21D;51970;53.484;49.488;2023-07-31T09:44:08;22.99;54.49
65369;HTU21D;51970;53.484;49.488;2023-07-31T09:46:37;23.20;54.33
65369;HTU21D;51970;53.484;49.488;2023-07-31T09:49:11;23.52;53.49
65369;HTU21D;51970;53.484;49.488;2023-07-31T09:51:39;23.61;53.03
65369;HTU21D;51970;53.484;49.488;2023-07-31T09:54:14;24.01;52.06
65369;HTU21D;51970;53.484;49.488;2023-07-31T09:56:46;23.98;52.53
65369;HTU21D;51970;53.484;49.488;2023-07-31T09:59:18;23.97;52.51
65369;HTU21D;51970;53.484;49.488;2023-07-31T10:01:46;24.15;51.98
65369;HTU21D;51970;53.484;49.488;2023-07-31T10:04:13;24.17;51.67
65369;HTU21D;51970;53.484;49.488;2023-07-31T10:06:42;23.69;52.33
65369;HTU21D;51970;53.484;49.488;2023-07-31T10:09:11;23.45;53.52
65369;HTU21D;51970;53.484;49.488;2023-07-31T10:11:51;23.53;52.98
65369;HTU21D;51970;53.484;49.488;2023-07-31T10:14:20;23.28;53.14
65369;HTU21D;51970;53.484;49.488;2023-07-31T10:16:47;23.17;53.40
65369;HTU21D;51970;53.484;49.488;2023-07-31T10:19:14;23.10;53.30
65369;HTU21D;51970;53.484;49.488;2023-07-31T10:21:42;22.94;53.80
65369;HTU21D;51970;53.484;49.488;2023-07-31T10:24:08;23.07;54.02
65369;HTU21D;51970;53.484;49.488;2023-07-31T10:26:35;23.31;53.06
65369;HTU21D;51970;53.484;49.488;2023-07-31T10:29:05;23.53;53.27
65369;HTU21D;51970;53.484;49.488;2023-07-31T10:31:32;23.68;51.33
65369;HTU21D;51970;53.484;49.488;2023-07-31T10:33:59;23.68;51.41
65369;HTU21D;51970;53.484;49.488;2023-07-31T10:36:26;23.36;51.35
65369;HTU21D;51970;53.484;49.488;2023-07-31T10:38:55;23.16;51.43
65369;HTU21D;51970;53.484;49.488;2023-07-31T10:41:31;23.26;51.66
65369;HTU21D;51970;53.484;49.488;2023-07-31T10:43:59;23.32;51.17
65369;HTU21D;51970;53.484;49.488;2023-07-31T10:46:25;23.18;51.53
65369;HTU21D;51970;53.484;49.488;2023-07-31T10:49:01;22.82;52.19
65369;HTU21D;51970;53.484;49.488;2023-07-31T10:51:34;22.64;53.27
65369;HTU21D;51970;53.484;49.488;2023-07-31T10:54:11;22.77;52.96
65369;HTU21D;51970;53.484;49.488;2023-07-31T10:56:38;22.90;52.27
65369;HTU21D;51970;53.484;49.488;2023-07-31T10:59:05;22.87;52.28
65369;HTU21D;51970;53.484;49.488;2023-07-31T11:01:55;22.68;52.76
65369;HTU21D;51970;53.484;49.488;2023-07-31T11:04:25;22.55;53.43
65369;HTU21D;51970;53.484;49.488;2023-07-31T11:07:00;22.63;53.36
65369;HTU21D;51970;53.484;49.488;2023-07-31T11:09:29;22.70;53.04
65369;HTU21D;51970;53.484;49.488;2023-07-31T11:11:56;22.67;53.31
65369;HTU21D;51970;53.484;49.488;2023-07-31T11:14:23;22.60;53.81
65369;HTU21D;51970;53.484;49.488;2023-07-31T11:16:50;22.55;54.42
65369;HTU21D;51970;53.484;49.488;2023-07-31T11:19:24;22.52;54.97
65369;HTU21D;51970;53.484;49.488;2023-07-31T11:21:52;22.55;55.09
65369;HTU21D;51970;53.484;49.488;2023-07-31T11:24:19;22.62;54.81
65369;HTU21D;51970;53.484;49.488;2023-07-31T11:26:50;22.82;54.61
65369;HTU21D;51970;53.484;49.488;2023-07-31T11:29:18;22.98;54.10
65369;HTU21D;51970;53.484;49.488;2023-07-31T11:31:47;23.03;54.16
65369;HTU21D;51970;53.484;49.488;2023-07-31T11:34:14;23.08;53.49
65369;HTU21D;51970;53.484;49.488;2023-07-31T11:36:41;22.96;53.73
65369;HTU21D;51970;53.484;49.488;2023-07-31T11:39:10;22.88;54.01
65369;HTU21D;51970;53.484;49.488;2023-07-31T11:41:40;22.81;54.26
65369;HTU21D;51970;53.484;49.488;2023-07-31T11:44:07;22.65;54.75
65369;HTU21D;51970;53.484;49.488;2023-07-31T11:46:33;22.62;55.26
65369;HTU21D;51970;53.484;49.488;2023-07-31T11:49:00;22.51;55.63
65369;HTU21D;51970;53.484;49.488;2023-07-31T11:51:27;22.38;55.97
65369;HTU21D;51970;53.484;49.488;2023-07-31T11:53:57;22.22;56.83
65369;HTU21D;51970;53.484;49.488;2023-07-31T11:56:25;22.22;56.83
65369;HTU21D;51970;53.484;49.488;2023-07-31T11:58:58;22.22;56.71
65369;HTU21D;51970;53.484;49.488;2023-07-31T12:01:26;22.13;56.90
65369;HTU21D;51970;53.484;49.488;2023-07-31T12:03:56;22.07;57.42
65369;HTU21D;51970;53.484;49.488;2023-07-31T12:06:32;22.13;57.20
65369;HTU21D;51970;53.484;49.488;2023-07-31T12:09:05;22.18;57.01
65369;HTU21D;51970;53.484;49.488;2023-07-31T12:11:45;22.10;57.40
65369;HTU21D;51970;53.484;49.488;2023-07-31T12:14:23;22.13;57.37
65369;HTU21D;51970;53.484;49.488;2023-07-31T12:16:58;22.20;57.19
65369;HTU21D;51970;53.484;49.488;2023-07-31T12:19:26;22.28;56.85
65369;HTU21D;51970;53.484;49.488;2023-07-31T12:22:12;22.38;57.04
65369;HTU21D;51970;53.484;49.488;2023-07-31T12:24:40;22.36;56.79
65369;HTU21D;51970;53.484;49.488;2023-07-31T12:27:14;22.27;57.40
65369;HTU21D;51970;53.484;49.488;2023-07-31T12:29:42;22.41;56.88
65369;HTU21D;51970;53.484;49.488;2023-07-31T12:32:22;22.65;56.48
65369;HTU21D;51970;53.484;49.488;2023-07-31T12:34:51;22.84;55.57
65369;HTU21D;51970;53.484;49.488;2023-07-31T12:37:17;23.07;55.27
65369;HTU21D;51970;53.484;49.488;2023-07-31T12:39:43;22.98;55.78
65369;HTU21D;51970;53.484;49.488;2023-07-31T12:42:10;23.05;55.64
65369;HTU21D;51970;53.484;49.488;2023-07-31T12:44:36;23.24;54.91
65369;HTU21D;51970;53.484;49.488;2023-07-31T12:47:02;23.47;54.45
65369;HTU21D;51970;53.484;49.488;2023-07-31T12:49:30;23.64;53.87
65369;HTU21D;51970;53.484;49.488;2023-07-31T12:51:56;23.74;54.19
65369;HTU21D;51970;53.484;49.488;2023-07-31T12:54:22;24.06;53.86
65369;HTU21D;51970;53.484;49.488;2023-07-31T12:56:49;24.36;53.04
65369;HTU21D;51970;53.484;49.488;2023-07-31T12:59:15;24.55;52.72
65369;HTU21D;51970;53.484;49.488;2023-07-31T13:01:41;24.60;52.38
65369;HTU21D;51970;53.484;49.488;2023-07-31T13:04:07;24.54;52.84
65369;HTU21D;51970;53.484;49.488;2023-07-31T13:06:34;24.19;53.36
65369;HTU21D;51970;53.484;49.488;2023-07-31T13:09:00;23.60;54.90
65369;HTU21D;51970;53.484;49.488;2023-07-31T13:11:27;23.51;55.45
65369;HTU21D;51970;53.484;49.488;2023-07-31T13:13:53;23.77;54.35
65369;HTU21D;51970;53.484;49.488;2023-07-31T13:16:19;23.94;53.50
65369;HTU21D;51970;53.484;49.488;2023-07-31T13:18:45;23.84;53.78
65369;HTU21D;51970;53.484;49.488;2023-07-31T13:21:11;23.95;53.68
65369;HTU21D;51970;53.484;49.488;2023-07-31T13:23:38;24.10;53.78
65369;HTU21D;51970;53.484;49.488;2023-07-31T13:26:04;24.18;53.44
65369;HTU21D;51970;53.484;49.488;2023-07-31T13:28:30;24.50;53.04
65369;HTU21D;51970;53.484;49.488;2023-07-31T13:30:57;24.69;52.59
65369;HTU21D;51970;53.484;49.488;2023-07-31T13:33:23;24.68;52.62
65369;HTU21D;51970;53.484;49.488;2023-07-31T13:35:49;24.47;52.94
65369;HTU21D;51970;53.484;49.488;2023-07-31T13:38:15;24.17;53.84
65369;HTU21D;51970;53.484;49.488;2023-07-31T13:40:42;24.05;54.38
65369;HTU21D;51970;53.484;49.488;2023-07-31T13:43:08;24.32;53.75
65369;HTU21D;51970;53.484;49.488;2023-07-31T13:45:34;24.55;53.20
65369;HTU21D;51970;53.484;49.488;2023-07-31T13:48:01;24.53;52.28
65369;HTU21D;51970;53.484;49.488;2023-07-31T13:50:27;24.20;53.23
65369;HTU21D;51970;53.484;49.488;2023-07-31T13:52:54;24.18;53.03
65369;HTU21D;51970;53.484;49.488;2023-07-31T13:55:20;24.24;52.94
65369;HTU21D;51970;53.484;49.488;2023-07-31T13:57:47;24.32;52.68
65369;HTU21D;51970;53.484;49.488;2023-07-31T14:00:14;24.17;53.30
65369;HTU21D;51970;53.484;49.488;2023-07-31T14:02:41;24.15;52.86
65369;HTU21D;51970;53.484;49.488;2023-07-31T14:05:07;24.01;53.49
65369;HTU21D;51970;53.484;49.488;2023-07-31T14:07:35;23.77;53.61
65369;HTU21D;51970;53.484;49.488;2023-07-31T14:10:01;23.61;54.22
65369;HTU21D;51970;53.484;49.488;2023-07-31T14:12:29;23.70;54.51
65369;HTU21D;51970;53.484;49.488;2023-07-31T14:14:56;23.72;54.13
65369;HTU21D;51970;53.484;49.488;2023-07-31T14:17:22;23.69;54.96
65369;HTU21D;51970;53.484;49.488;2023-07-31T14:19:49;23.61;54.91
65369;HTU21D;51970;53.484;49.488;2023-07-31T14:22:29;23.62;55.87
65369;HTU21D;51970;53.484;49.488;2023-07-31T14:24:55;23.65;55.59
65369;HTU21D;51970;53.484;49.488;2023-07-31T14:27:22;23.70;55.45
65369;HTU21D;51970;53.484;49.488;2023-07-31T14:29:48;23.76;55.42
65369;HTU21D;51970;53.484;49.488;2023-07-31T14:32:14;23.88;55.00
65369;HTU21D;51970;53.484;49.488;2023-07-31T14:34:41;23.90;54.71
65369;HTU21D;51970;53.484;49.488;2023-07-31T14:37:07;23.92;54.57
65369;HTU21D;51970;53.484;49.488;2023-07-31T14:39:33;23.94;54.43
65369;HTU21D;51970;53.484;49.488;2023-07-31T14:41:59;24.66;52.53
65369;HTU21D;51970;53.484;49.488;2023-07-31T14:44:26;24.61;52.48
65369;HTU21D;51970;53.484;49.488;2023-07-31T14:46:52;24.43;53.20
65369;HTU21D;51970;53.484;49.488;2023-07-31T14:49:18;23.91;54.62
65369;HTU21D;51970;53.484;49.488;2023-07-31T14:51:44;23.61;55.68
65369;HTU21D;51970;53.484;49.488;2023-07-31T14:54:11;23.38;56.39
65369;HTU21D;51970;53.484;49.488;2023-07-31T14:56:37;23.28;56.85
65369;HTU21D;51970;53.484;49.488;2023-07-31T14:59:03;23.35;56.74
65369;HTU21D;51970;53.484;49.488;2023-07-31T15:01:30;23.44;56.16
65369;HTU21D;51970;53.484;49.488;2023-07-31T15:03:56;23.47;56.11
65369;HTU21D;51970;53.484;49.488;2023-07-31T15:06:22;23.45;56.29
65369;HTU21D;51970;53.484;49.488;2023-07-31T15:08:48;23.44;55.93
65369;HTU21D;51970;53.484;49.488;2023-07-31T15:11:15;23.42;56.32
65369;HTU21D;51970;53.484;49.488;2023-07-31T15:13:41;23.41;56.27